createdAt,value
2022-09-15T00:02:25.166Z,14.16
2022-09-15T00:04:51.765Z,14.26
2022-09-15T00:07:18.449Z,14.03
2022-09-15T00:09:44.928Z,14.11
2022-09-15T00:12:11.453Z,14.16
2022-09-15T00:14:37.905Z,14.32
2022-09-15T00:17:04.607Z,14.22
2022-09-15T00:19:31.117Z,14.11
2022-09-15T00:21:57.669Z,14.14
2022-09-15T00:24:24.155Z,14.01
2022-09-15T00:26:50.664Z,14.03
2022-09-15T00:29:17.143Z,14.20
2022-09-15T00:31:43.626Z,14.05
2022-09-15T00:34:12.789Z,14.09
2022-09-15T00:36:39.398Z,14.06
2022-09-15T00:39:05.902Z,14.08
2022-09-15T00:41:32.413Z,14.18
2022-09-15T00:44:05.450Z,14.09
2022-09-15T00:46:42.361Z,14.03
2022-09-15T00:49:11.534Z,14.15
2022-09-15T00:51:51.680Z,14.05
2022-09-15T00:54:25.137Z,14.16
2022-09-15T00:56:54.999Z,14.22
2022-09-15T00:59:26.354Z,14.17
2022-09-15T01:02:01.092Z,14.15
2022-09-15T01:04:27.695Z,14.15
2022-09-15T01:06:59.588Z,14.16
2022-09-15T01:09:51.158Z,14.15
2022-09-15T01:12:18.464Z,14.08
2022-09-15T01:14:44.884Z,13.95
2022-09-15T01:17:40.414Z,14.08
2022-09-15T01:20:06.814Z,13.97
2022-09-15T01:22:39.515Z,14.06
2022-09-15T01:25:43.579Z,14.09
2022-09-15T01:28:43.633Z,14.08
2022-09-15T01:31:19.382Z,14.00
2022-09-15T01:34:16.805Z,13.92
2022-09-15T01:36:54.746Z,13.97
2022-09-15T01:39:28.682Z,14.02
2022-09-15T01:42:05.536Z,13.90
2022-09-15T01:44:40.260Z,13.93
2022-09-15T01:47:10.233Z,13.94
2022-09-15T01:49:44.690Z,13.90
2022-09-15T01:52:11.475Z,14.00
2022-09-15T01:54:45.975Z,14.02
2022-09-15T01:57:12.935Z,14.14
2022-09-15T01:59:39.362Z,14.14
2022-09-15T02:02:16.691Z,14.17
2022-09-15T02:04:55.349Z,14.13
2022-09-15T02:07:57.005Z,14.11
2022-09-15T02:10:34.565Z,14.11
2022-09-15T02:13:18.102Z,14.09
2022-09-15T02:15:48.432Z,14.13
2022-09-15T02:18:32.819Z,14.12
2022-09-15T02:21:09.240Z,14.03
2022-09-15T02:23:40.959Z,14.16
2022-09-15T02:26:14.067Z,14.19
2022-09-15T02:28:42.987Z,14.02
2022-09-15T02:31:14.140Z,14.09
2022-09-15T02:33:45.535Z,14.10
2022-09-15T02:36:16.559Z,14.01
2022-09-15T02:38:49.218Z,13.90
2022-09-15T02:41:15.871Z,13.99
2022-09-15T02:43:49.562Z,13.94
2022-09-15T02:46:18.817Z,14.01
2022-09-15T02:48:45.528Z,13.95
2022-09-15T02:51:12.234Z,13.93
2022-09-15T02:53:38.918Z,14.01
2022-09-15T02:56:06.589Z,13.86
2022-09-15T02:58:36.415Z,14.02
2022-09-15T03:01:04.514Z,13.89
2022-09-15T03:03:32.545Z,13.95
2022-09-15T03:06:16.319Z,13.86
2022-09-15T03:08:52.023Z,13.79
2022-09-15T03:11:20.346Z,13.80
2022-09-15T03:13:47.552Z,13.77
2022-09-15T03:16:15.806Z,13.76
2022-09-15T03:18:42.589Z,13.83
2022-09-15T03:21:11.579Z,13.87
2022-09-15T03:23:38.276Z,13.85
2022-09-15T03:26:06.210Z,13.76
2022-09-15T03:28:32.767Z,13.85
2022-09-15T03:30:59.482Z,13.70
2022-09-15T03:33:26.146Z,13.59
2022-09-15T03:35:53.301Z,13.56
2022-09-15T03:38:23.152Z,13.58
2022-09-15T03:41:10.578Z,13.61
2022-09-15T03:43:37.779Z,13.55
2022-09-15T03:46:06.911Z,13.47
2022-09-15T03:48:35.480Z,13.42
2022-09-15T03:51:03.168Z,13.41
2022-09-15T03:53:32.003Z,13.39
2022-09-15T03:56:27.284Z,13.35
2022-09-15T03:58:54.317Z,13.35
2022-09-15T04:01:21.441Z,13.29
2022-09-15T04:03:51.231Z,13.32
2022-09-15T04:06:20.234Z,13.23
2022-09-15T04:08:47.652Z,13.24
2022-09-15T04:11:14.470Z,13.24
2022-09-15T04:13:42.044Z,13.12
2022-09-15T04:16:11.549Z,13.19
2022-09-15T04:18:38.449Z,13.11
2022-09-15T04:21:08.856Z,13.09
2022-09-15T04:23:35.402Z,13.11
2022-09-15T04:26:05.468Z,13.18
2022-09-15T04:28:34.827Z,13.18
2022-09-15T04:31:07.761Z,13.16
2022-09-15T04:33:35.071Z,13.15
2022-09-15T04:36:04.519Z,12.98
2022-09-15T04:38:31.711Z,13.00
2022-09-15T04:40:58.880Z,13.01
2022-09-15T04:43:26.154Z,13.02
2022-09-15T04:45:53.944Z,13.05
2022-09-15T04:48:21.235Z,12.91
2022-09-15T04:50:47.769Z,12.91
2022-09-15T04:53:15.018Z,12.97
2022-09-15T04:55:41.817Z,12.96
2022-09-15T04:58:08.901Z,12.97
2022-09-15T05:00:45.773Z,12.94
2022-09-15T05:03:14.040Z,12.97
2022-09-15T05:05:41.349Z,12.91
2022-09-15T05:08:08.228Z,12.90
2022-09-15T05:10:35.167Z,12.94
2022-09-15T05:13:01.632Z,13.00
2022-09-15T05:15:28.113Z,13.03
2022-09-15T05:17:54.668Z,13.07
2022-09-15T05:20:21.152Z,13.17
2022-09-15T05:22:47.591Z,13.19
2022-09-15T05:25:14.163Z,13.24
2022-09-15T05:27:40.631Z,13.20
2022-09-15T05:30:35.209Z,13.32
2022-09-15T05:32:54.159Z,13.36
2022-09-15T05:35:20.620Z,13.29
2022-09-15T05:37:47.099Z,13.29
2022-09-15T05:40:13.674Z,13.33
2022-09-15T05:42:40.401Z,13.39
2022-09-15T05:45:07.580Z,13.43
2022-09-15T05:47:34.250Z,13.42
2022-09-15T05:50:00.719Z,13.35
2022-09-15T05:52:27.169Z,13.38
2022-09-15T05:54:58.869Z,13.31
2022-09-15T05:57:25.734Z,13.28
2022-09-15T05:59:52.416Z,13.35
2022-09-15T06:02:19.113Z,13.38
2022-09-15T06:04:46.218Z,13.51
2022-09-15T06:07:13.181Z,13.45
2022-09-15T06:09:39.737Z,13.54
2022-09-15T06:12:06.424Z,13.54
2022-09-15T06:14:32.936Z,13.53
2022-09-15T06:16:59.422Z,13.68
2022-09-15T06:19:25.891Z,13.59
2022-09-15T06:21:52.995Z,13.54
2022-09-15T06:24:19.627Z,13.57
2022-09-15T06:26:46.086Z,13.59
2022-09-15T06:29:12.899Z,13.58
2022-09-15T06:31:39.574Z,13.61
2022-09-15T06:34:06.697Z,13.72
2022-09-15T06:36:33.637Z,13.61
2022-09-15T06:39:00.163Z,13.72
2022-09-15T06:41:38.184Z,13.79
2022-09-15T06:44:09.745Z,13.93
2022-09-15T06:46:36.433Z,13.99
2022-09-15T06:49:03.004Z,13.99
2022-09-15T06:51:35.224Z,14.06
2022-09-15T06:54:03.017Z,14.11
2022-09-15T06:56:30.428Z,14.22
2022-09-15T06:59:00.138Z,14.34
2022-09-15T07:01:28.964Z,14.50
2022-09-15T07:03:57.092Z,14.77
2022-09-15T07:06:24.689Z,14.58
2022-09-15T07:08:51.421Z,14.70
2022-09-15T07:11:18.475Z,14.84
2022-09-15T07:13:45.350Z,15.04
2022-09-15T07:16:13.035Z,15.08
2022-09-15T07:18:43.211Z,15.02
2022-09-15T07:21:19.886Z,15.03
2022-09-15T07:23:47.632Z,14.88
2022-09-15T07:26:25.829Z,14.98
2022-09-15T07:28:56.418Z,14.99
2022-09-15T07:31:25.276Z,15.15
2022-09-15T07:33:52.686Z,15.36
2022-09-15T07:36:19.878Z,15.19
2022-09-15T07:38:48.562Z,15.35
2022-09-15T07:41:18.774Z,15.15
2022-09-15T07:43:49.727Z,15.23
2022-09-15T07:46:17.639Z,15.23
2022-09-15T07:48:45.829Z,15.22
2022-09-15T07:51:12.926Z,15.35
2022-09-15T07:53:39.432Z,15.30
2022-09-15T07:56:06.358Z,15.45
2022-09-15T07:58:33.730Z,15.52
2022-09-15T08:01:11.063Z,15.69
2022-09-15T08:03:42.914Z,15.55
2022-09-15T08:06:10.639Z,15.62
2022-09-15T08:08:41.252Z,15.74
2022-09-15T08:11:09.573Z,15.96
2022-09-15T08:13:36.676Z,15.99
2022-09-15T08:16:15.222Z,16.34
2022-09-15T08:18:43.245Z,16.79
2022-09-15T08:21:13.579Z,16.61
2022-09-15T08:23:40.395Z,16.51
2022-09-15T08:26:14.112Z,16.26
2022-09-15T08:28:41.681Z,16.20
2022-09-15T08:31:10.913Z,16.21
2022-09-15T08:33:39.825Z,16.24
2022-09-15T08:36:13.511Z,16.39
2022-09-15T08:38:41.509Z,16.27
2022-09-15T08:41:14.084Z,16.42
2022-09-15T08:44:10.189Z,16.38
2022-09-15T08:46:47.621Z,16.39
2022-09-15T08:49:50.502Z,16.76
2022-09-15T08:52:23.728Z,16.34
2022-09-15T08:54:56.411Z,16.41
2022-09-15T08:57:25.799Z,16.28
2022-09-15T08:59:54.494Z,16.28
2022-09-15T09:02:27.205Z,16.12
2022-09-15T09:05:10.803Z,16.35
2022-09-15T09:07:52.853Z,16.84
2022-09-15T09:10:25.281Z,17.10
2022-09-15T09:13:20.285Z,17.25
2022-09-15T09:16:22.896Z,17.23
2022-09-15T09:18:58.743Z,18.12
2022-09-15T09:21:31.147Z,17.81
2022-09-15T09:24:05.306Z,17.50
2022-09-15T09:26:35.923Z,17.68
2022-09-15T09:29:10.901Z,18.16
2022-09-15T09:31:37.922Z,17.64
2022-09-15T09:34:13.628Z,20.00
2022-09-15T09:36:40.279Z,20.13
2022-09-15T09:39:13.762Z,19.63
2022-09-15T09:41:42.099Z,18.19
2022-09-15T09:44:14.942Z,17.42
2022-09-15T09:46:42.387Z,17.71
2022-09-15T09:49:20.975Z,17.55
2022-09-15T09:52:00.136Z,17.18
2022-09-15T09:54:29.319Z,17.26
2022-09-15T09:57:17.050Z,17.31
2022-09-15T09:59:46.337Z,17.57
2022-09-15T10:02:21.896Z,17.75
2022-09-15T10:04:51.936Z,17.60
2022-09-15T10:07:22.167Z,17.71
2022-09-15T10:09:57.879Z,17.36
2022-09-15T10:12:40.546Z,16.95
2022-09-15T10:15:20.679Z,17.05
2022-09-15T10:17:49.568Z,17.24
2022-09-15T10:20:54.610Z,17.52
2022-09-15T10:23:21.718Z,17.57
2022-09-15T10:25:58.980Z,17.85
2022-09-15T10:28:27.709Z,17.79
2022-09-15T10:31:00.373Z,17.85
2022-09-15T10:33:38.499Z,17.74
2022-09-15T10:36:13.990Z,17.97
2022-09-15T10:39:10.922Z,18.03
2022-09-15T10:41:59.166Z,17.84
2022-09-15T10:44:25.664Z,17.74
2022-09-15T10:47:26.158Z,17.86
2022-09-15T10:50:10.658Z,18.21
2022-09-15T10:53:13.120Z,18.41
2022-09-15T10:56:00.331Z,17.96
2022-09-15T10:58:51.144Z,17.81
2022-09-15T11:01:29.866Z,18.06
2022-09-15T11:04:02.943Z,17.77
2022-09-15T11:07:00.431Z,18.03
2022-09-15T11:09:51.055Z,17.90
2022-09-15T11:12:33.193Z,17.65
2022-09-15T11:15:21.315Z,17.26
2022-09-15T11:18:09.558Z,17.53
2022-09-15T11:20:36.055Z,17.45
2022-09-15T11:23:06.858Z,17.74
2022-09-15T11:25:38.788Z,18.36
2022-09-15T11:28:26.696Z,18.29
2022-09-15T11:31:02.828Z,18.39
2022-09-15T11:33:55.481Z,18.59
2022-09-15T11:36:43.510Z,18.16
2022-09-15T11:39:22.452Z,18.20
2022-09-15T11:41:56.445Z,18.35
2022-09-15T11:44:40.452Z,18.40
2022-09-15T11:47:33.662Z,18.74
2022-09-15T11:50:16.556Z,18.88
2022-09-15T11:52:46.723Z,19.10
2022-09-15T11:55:32.024Z,18.86
2022-09-15T11:57:58.544Z,18.52
2022-09-15T12:00:25.472Z,18.37
2022-09-15T12:03:17.722Z,17.92
2022-09-15T12:06:00.927Z,17.59
2022-09-15T12:08:34.175Z,17.64
2022-09-15T12:11:05.886Z,17.78
2022-09-15T12:13:33.039Z,17.99
2022-09-15T12:16:04.262Z,18.04
2022-09-15T12:18:47.034Z,18.11
2022-09-15T12:21:27.737Z,18.12
2022-09-15T12:24:13.011Z,18.15
2022-09-15T12:26:43.217Z,18.16
2022-09-15T12:29:42.062Z,18.01
2022-09-15T12:32:35.232Z,18.12
2022-09-15T12:35:20.009Z,17.94
2022-09-15T12:37:58.158Z,18.09
2022-09-15T12:40:30.234Z,17.93
2022-09-15T12:42:57.572Z,17.72
2022-09-15T12:45:30.343Z,17.88
2022-09-15T12:47:57.031Z,18.20
2022-09-15T12:50:36.206Z,18.18
2022-09-15T12:53:18.196Z,18.40
2022-09-15T12:56:01.730Z,18.80
2022-09-15T12:58:37.589Z,19.15
2022-09-15T13:01:19.727Z,18.96
2022-09-15T13:03:46.657Z,19.02
2022-09-15T13:06:19.337Z,19.18
2022-09-15T13:08:49.689Z,18.96
2022-09-15T13:11:29.714Z,18.70
2022-09-15T13:14:08.392Z,19.03
2022-09-15T13:16:43.942Z,19.16
2022-09-15T13:19:16.985Z,19.14
2022-09-15T13:21:51.476Z,19.12
2022-09-15T13:24:27.153Z,18.67
2022-09-15T13:26:55.840Z,18.72
2022-09-15T13:29:24.349Z,18.39
2022-09-15T13:31:59.273Z,18.43
2022-09-15T13:35:06.595Z,18.54
2022-09-15T13:38:08.578Z,18.78
2022-09-15T13:40:58.276Z,18.52
2022-09-15T13:43:40.802Z,18.52
2022-09-15T13:46:13.823Z,18.24
2022-09-15T13:49:08.239Z,18.13
2022-09-15T13:51:36.607Z,17.93
2022-09-15T13:54:06.808Z,17.84
2022-09-15T13:56:39.588Z,18.01
2022-09-15T13:59:16.259Z,18.21
2022-09-15T14:01:44.933Z,18.08
2022-09-15T14:04:22.284Z,18.07
2022-09-15T14:06:54.985Z,18.04
2022-09-15T14:09:27.360Z,17.90
2022-09-15T14:11:57.887Z,17.63
2022-09-15T14:14:32.198Z,17.59
2022-09-15T14:16:58.997Z,17.51
2022-09-15T14:19:33.874Z,17.41
2022-09-15T14:22:03.548Z,17.62
2022-09-15T14:24:32.205Z,17.38
2022-09-15T14:27:03.493Z,17.19
2022-09-15T14:29:30.971Z,17.21
2022-09-15T14:32:01.794Z,17.06
2022-09-15T14:34:31.739Z,17.01
2022-09-15T14:37:05.042Z,17.00
2022-09-15T14:39:33.439Z,17.05
2022-09-15T14:42:21.632Z,17.01
2022-09-15T14:47:36.425Z,16.77
2022-09-15T14:50:19.712Z,16.53
2022-09-15T14:52:58.725Z,16.55
2022-09-15T14:55:29.130Z,16.51
2022-09-15T14:58:20.196Z,16.35
2022-09-15T15:00:57.670Z,16.37
2022-09-15T15:03:35.473Z,16.32
2022-09-15T15:06:32.031Z,16.13
2022-09-15T15:09:21.308Z,16.20
2022-09-15T15:11:51.558Z,16.27
2022-09-15T15:14:18.522Z,16.28
2022-09-15T15:17:08.659Z,16.32
2022-09-15T15:19:41.030Z,16.27
2022-09-15T15:22:11.554Z,16.21
2022-09-15T15:24:44.043Z,16.23
2022-09-15T15:27:32.268Z,16.25
2022-09-15T15:30:36.545Z,16.19
2022-09-15T15:33:36.805Z,16.26
2022-09-15T15:36:09.282Z,16.28
2022-09-15T15:38:44.909Z,16.27
2022-09-15T15:41:28.788Z,16.31
2022-09-15T15:43:58.008Z,16.25
2022-09-15T15:46:57.740Z,16.25
2022-09-15T15:49:27.412Z,16.15
2022-09-15T15:51:55.585Z,16.12
2022-09-15T15:54:23.141Z,16.14
2022-09-15T15:56:50.606Z,16.09
2022-09-15T15:59:17.573Z,16.06
2022-09-15T16:01:46.739Z,16.02
2022-09-15T16:04:13.833Z,16.00
2022-09-15T16:06:41.569Z,16.00
2022-09-15T16:09:08.183Z,16.00
2022-09-15T16:11:36.639Z,15.97
2022-09-15T16:14:03.850Z,16.01
2022-09-15T16:16:30.617Z,15.94
2022-09-15T16:18:57.218Z,15.95
2022-09-15T16:21:41.465Z,16.04
2022-09-15T16:24:14.014Z,16.05
2022-09-15T16:26:41.417Z,15.98
2022-09-15T16:29:07.972Z,15.95
2022-09-15T16:31:35.142Z,15.94
2022-09-15T16:34:01.723Z,15.95
2022-09-15T16:36:36.321Z,15.93
2022-09-15T16:39:03.839Z,15.88
2022-09-15T16:41:30.408Z,15.91
2022-09-15T16:43:57.020Z,15.96
2022-09-15T16:46:23.728Z,15.93
2022-09-15T16:48:50.664Z,15.90
2022-09-15T16:51:28.900Z,15.88
2022-09-15T16:53:57.909Z,15.89
2022-09-15T16:56:24.710Z,15.85
2022-09-15T16:58:58.803Z,15.76
2022-09-15T17:01:26.933Z,15.77
2022-09-15T17:03:53.587Z,15.77
2022-09-15T17:06:22.023Z,15.76
2022-09-15T17:08:48.657Z,15.77
2022-09-15T17:11:17.566Z,15.75
2022-09-15T17:13:45.091Z,15.76
2022-09-15T17:16:14.911Z,15.67
2022-09-15T17:18:41.579Z,15.64
2022-09-15T17:21:11.163Z,15.66
2022-09-15T17:23:39.822Z,15.62
2022-09-15T17:26:31.603Z,15.60
2022-09-15T17:28:58.733Z,15.55
2022-09-15T17:31:28.370Z,15.56
2022-09-15T17:33:54.966Z,15.60
2022-09-15T17:36:21.536Z,15.59
2022-09-15T17:38:49.066Z,15.50
2022-09-15T17:41:17.844Z,15.46
2022-09-15T17:43:44.716Z,15.49
2022-09-15T17:46:11.942Z,15.43
2022-09-15T17:48:39.094Z,15.44
2022-09-15T17:51:07.219Z,15.41
2022-09-15T17:53:37.162Z,15.43
2022-09-15T17:56:03.726Z,15.38
2022-09-15T17:58:31.538Z,15.39
2022-09-15T18:00:58.537Z,15.39
2022-09-15T18:03:25.084Z,15.33
2022-09-15T18:05:52.193Z,15.40
2022-09-15T18:08:18.802Z,15.45
2022-09-15T18:10:45.662Z,15.47
2022-09-15T18:13:19.040Z,15.42
2022-09-15T18:15:45.769Z,15.43
2022-09-15T18:18:16.211Z,15.40
2022-09-15T18:20:43.664Z,15.38
2022-09-15T18:23:15.411Z,15.40
2022-09-15T18:25:42.814Z,15.37
2022-09-15T18:28:10.084Z,15.34
2022-09-15T18:30:41.890Z,15.34
2022-09-15T18:33:14.606Z,15.28
2022-09-15T18:35:42.153Z,15.28
2022-09-15T18:38:09.469Z,15.28
2022-09-15T18:40:36.033Z,15.33
2022-09-15T18:43:02.673Z,15.35
2022-09-15T18:45:29.211Z,15.31
2022-09-15T18:47:55.811Z,15.28
2022-09-15T18:50:23.930Z,15.33
2022-09-15T18:52:50.532Z,15.38
2022-09-15T18:55:20.254Z,15.35
2022-09-15T18:57:47.572Z,15.39
2022-09-15T19:00:17.519Z,15.39
2022-09-15T19:02:44.525Z,15.41
2022-09-15T19:05:11.580Z,15.41
2022-09-15T19:07:39.240Z,15.39
2022-09-15T19:10:11.064Z,15.41
2022-09-15T19:12:38.714Z,15.39
2022-09-15T19:15:10.737Z,15.39
2022-09-15T19:17:38.646Z,15.33
2022-09-15T19:20:07.070Z,15.32
2022-09-15T19:22:34.317Z,15.30
2022-09-15T19:25:01.517Z,15.30
2022-09-15T19:27:28.351Z,15.29
2022-09-15T19:29:54.964Z,15.23
2022-09-15T19:32:22.198Z,15.24
2022-09-15T19:34:49.238Z,15.20
2022-09-15T19:37:19.026Z,15.21
2022-09-15T19:39:46.526Z,15.22
2022-09-15T19:42:16.968Z,15.20
2022-09-15T19:44:43.743Z,15.16
2022-09-15T19:47:10.560Z,15.08
2022-09-15T19:49:37.355Z,15.09
2022-09-15T19:52:06.540Z,14.99
2022-09-15T19:54:34.520Z,14.97
2022-09-15T19:57:02.125Z,14.94
2022-09-15T19:59:31.277Z,14.79
2022-09-15T20:01:58.883Z,14.70
2022-09-15T20:04:25.482Z,14.66
2022-09-15T20:06:52.052Z,14.60
2022-09-15T20:09:18.861Z,14.59
2022-09-15T20:11:45.377Z,14.56
2022-09-15T20:14:12.015Z,14.58
2022-09-15T20:16:38.597Z,14.50
2022-09-15T20:19:06.181Z,14.46
2022-09-15T20:21:51.738Z,14.40
2022-09-15T20:24:19.949Z,14.38
2022-09-15T20:26:46.702Z,14.37
2022-09-15T20:29:13.882Z,14.43
2022-09-15T20:31:40.745Z,14.38
2022-09-15T20:34:07.445Z,14.39
2022-09-15T20:36:36.508Z,14.42
2022-09-15T20:39:06.178Z,14.35
2022-09-15T20:41:32.796Z,14.33
2022-09-15T20:44:00.223Z,14.31
2022-09-15T20:46:29.161Z,14.35
2022-09-15T20:48:55.738Z,14.35
2022-09-15T20:51:25.090Z,14.32
2022-09-15T20:53:53.949Z,14.32
2022-09-15T20:56:25.501Z,14.33
2022-09-15T20:58:58.446Z,14.37
2022-09-15T21:01:34.281Z,14.37
2022-09-15T21:04:01.170Z,14.32
2022-09-15T21:06:28.806Z,14.29
2022-09-15T21:08:56.760Z,14.33
2022-09-15T21:11:26.303Z,14.26
2022-09-15T21:13:52.967Z,14.25
2022-09-15T21:16:21.932Z,14.20
2022-09-15T21:18:49.540Z,14.15
2022-09-15T21:21:28.221Z,14.16
2022-09-15T21:23:56.498Z,14.16
2022-09-15T21:26:28.300Z,14.13
2022-09-15T21:28:56.029Z,14.22
2022-09-15T21:31:33.154Z,14.20
2022-09-15T21:33:59.843Z,14.19
2022-09-15T21:36:29.558Z,14.17
2022-09-15T21:38:58.164Z,14.25
2022-09-15T21:41:27.379Z,14.26
2022-09-15T21:43:58.268Z,14.28
2022-09-15T21:46:27.843Z,14.20
2022-09-15T21:48:56.080Z,14.23
2022-09-15T21:51:24.952Z,14.28
2022-09-15T21:53:54.048Z,14.22
2022-09-15T21:56:21.343Z,14.21
2022-09-15T21:58:48.073Z,14.20
2022-09-15T22:01:20.378Z,14.19
2022-09-15T22:03:51.557Z,14.12
2022-09-15T22:06:20.119Z,14.13
2022-09-15T22:08:47.075Z,14.06
2022-09-15T22:11:13.688Z,14.07
2022-09-15T22:13:43.526Z,14.08
2022-09-15T22:16:16.497Z,14.04
2022-09-15T22:18:44.280Z,14.03
2022-09-15T22:21:14.849Z,14.05
2022-09-15T22:23:42.558Z,14.15
2022-09-15T22:26:16.107Z,14.13
2022-09-15T22:28:43.169Z,14.10
2022-09-15T22:31:11.869Z,14.04
2022-09-15T22:33:40.951Z,14.06
2022-09-15T22:36:12.194Z,14.07
2022-09-15T22:38:38.860Z,14.00
2022-09-15T22:41:12.042Z,13.97
2022-09-15T22:43:40.007Z,13.96
2022-09-15T22:46:07.651Z,13.86
2022-09-15T22:48:37.479Z,13.87
2022-09-15T22:51:06.994Z,13.81
2022-09-15T22:53:54.631Z,13.78
2022-09-15T22:56:21.478Z,13.74
2022-09-15T22:58:49.485Z,13.77
2022-09-15T23:01:21.582Z,13.73
2022-09-15T23:03:53.080Z,13.75
2022-09-15T23:06:20.564Z,13.72
2022-09-15T23:08:54.705Z,13.70
2022-09-15T23:11:21.306Z,13.68
2022-09-15T23:13:47.892Z,13.72
2022-09-15T23:16:14.636Z,13.66
2022-09-15T23:18:41.180Z,13.58
2022-09-15T23:21:09.691Z,13.62
2022-09-15T23:23:39.033Z,13.65
2022-09-15T23:26:07.963Z,13.60
2022-09-15T23:28:34.596Z,13.54
2022-09-15T23:31:01.504Z,13.47
2022-09-15T23:33:31.383Z,13.43
2022-09-15T23:36:03.099Z,13.44
2022-09-15T23:38:30.465Z,13.52
2022-09-15T23:40:57.333Z,13.46
2022-09-15T23:43:23.816Z,13.39
2022-09-15T23:45:51.221Z,13.34
2022-09-15T23:48:17.792Z,13.34
2022-09-15T23:50:44.413Z,13.22
2022-09-15T23:53:10.875Z,13.23
2022-09-15T23:55:37.509Z,13.29
2022-09-15T23:58:05.386Z,13.30
